sensor_id;sensor_type;location;lat;lon;timestamp;pressure;altitude;pressure_sealevel;temperature;humidity
75998;BME280;64685;48.762;44.822;2024-03-07T00:03:19;101907.03;;;-1.84;100.00
75998;BME280;64685;48.762;44.822;2024-03-07T00:08:23;101889.13;;;-1.87;100.00
75998;BME280;64685;48.762;44.822;2024-03-07T00:13:27;101891.44;;;-1.90;100.00
75998;BME280;64685;48.762;44.822;2024-03-07T00:18:31;101904.53;;;-1.92;100.00
75998;BME280;64685;48.762;44.822;2024-03-07T00:23:35;101890.44;;;-1.96;100.00
75998;BME280;64685;48.762;44.822;2024-03-07T00:28:38;101902.00;;;-1.94;100.00
75998;BME280;64685;48.762;44.822;2024-03-07T00:33:42;101915.88;;;-1.95;100.00
75998;BME280;64685;48.762;44.822;2024-03-07T00:39:06;101896.31;;;-1.92;100.00
75998;BME280;64685;48.762;44.822;2024-03-07T00:44:11;101893.53;;;-1.86;100.00
75998;BME280;64685;48.762;44.822;2024-03-07T00:49:15;101888.47;;;-1.76;100.00
75998;BME280;64685;48.762;44.822;2024-03-07T00:54:19;101898.34;;;-1.68;100.00
75998;BME280;64685;48.762;44.822;2024-03-07T00:59:24;101898.13;;;-1.60;100.00
75998;BME280;64685;48.762;44.822;2024-03-07T01:04:28;101901.09;;;-1.75;100.00
75998;BME280;64685;48.762;44.822;2024-03-07T01:09:34;101901.94;;;-1.74;100.00
75998;BME280;64685;48.762;44.822;2024-03-07T01:14:38;101911.88;;;-1.86;100.00
75998;BME280;64685;48.762;44.822;2024-03-07T01:19:42;101901.53;;;-1.84;100.00
75998;BME280;64685;48.762;44.822;2024-03-07T01:24:47;101906.41;;;-1.86;100.00
75998;BME280;64685;48.762;44.822;2024-03-07T01:29:50;101919.44;;;-1.88;100.00
75998;BME280;64685;48.762;44.822;2024-03-07T01:34:54;101900.94;;;-1.86;100.00
75998;BME280;64685;48.762;44.822;2024-03-07T01:39:58;101906.44;;;-2.06;100.00
75998;BME280;64685;48.762;44.822;2024-03-07T01:45:02;101922.19;;;-2.01;100.00
75998;BME280;64685;48.762;44.822;2024-03-07T01:50:07;101912.97;;;-2.07;100.00
75998;BME280;64685;48.762;44.822;2024-03-07T01:55:12;101928.31;;;-2.06;100.00
75998;BME280;64685;48.762;44.822;2024-03-07T02:00:17;101917.38;;;-2.32;100.00
75998;BME280;64685;48.762;44.822;2024-03-07T02:05:21;101920.75;;;-2.30;100.00
75998;BME280;64685;48.762;44.822;2024-03-07T02:10:25;101921.16;;;-2.26;100.00
75998;BME280;64685;48.762;44.822;2024-03-07T02:15:29;101918.44;;;-2.26;100.00
75998;BME280;64685;48.762;44.822;2024-03-07T02:20:32;101926.63;;;-2.26;100.00
75998;BME280;64685;48.762;44.822;2024-03-07T02:25:36;101928.31;;;-2.38;100.00
75998;BME280;64685;48.762;44.822;2024-03-07T02:30:40;101930.19;;;-2.45;100.00
75998;BME280;64685;48.762;44.822;2024-03-07T02:35:44;101935.44;;;-2.50;100.00
75998;BME280;64685;48.762;44.822;2024-03-07T02:40:48;101953.31;;;-2.48;100.00
75998;BME280;64685;48.762;44.822;2024-03-07T02:45:52;101933.78;;;-2.45;100.00
75998;BME280;64685;48.762;44.822;2024-03-07T02:50:55;101949.50;;;-2.60;100.00
75998;BME280;64685;48.762;44.822;2024-03-07T02:55:59;101935.84;;;-2.66;100.00
75998;BME280;64685;48.762;44.822;2024-03-07T03:01:03;101958.31;;;-2.71;100.00
75998;BME280;64685;48.762;44.822;2024-03-07T03:06:07;101956.63;;;-2.78;100.00
75998;BME280;64685;48.762;44.822;2024-03-07T03:11:11;101969.06;;;-2.63;100.00
75998;BME280;64685;48.762;44.822;2024-03-07T03:16:17;101968.63;;;-2.73;100.00
75998;BME280;64685;48.762;44.822;2024-03-07T03:21:36;101969.78;;;-3.01;100.00
75998;BME280;64685;48.762;44.822;2024-03-07T03:26:40;101987.44;;;-2.97;100.00
75998;BME280;64685;48.762;44.822;2024-03-07T03:31:45;101966.22;;;-3.02;100.00
75998;BME280;64685;48.762;44.822;2024-03-07T03:36:49;101985.97;;;-3.00;100.00
75998;BME280;64685;48.762;44.822;2024-03-07T03:41:53;101988.47;;;-3.11;100.00
75998;BME280;64685;48.762;44.822;2024-03-07T03:46:57;101997.66;;;-3.12;100.00
75998;BME280;64685;48.762;44.822;2024-03-07T03:52:01;101998.97;;;-3.08;100.00
75998;BME280;64685;48.762;44.822;2024-03-07T03:57:04;102003.03;;;-2.98;100.00
75998;BME280;64685;48.762;44.822;2024-03-07T04:02:09;101999.25;;;-2.97;100.00
75998;BME280;64685;48.762;44.822;2024-03-07T04:07:12;102016.53;;;-2.77;100.00
75998;BME280;64685;48.762;44.822;2024-03-07T04:12:16;102014.47;;;-2.75;100.00
75998;BME280;64685;48.762;44.822;2024-03-07T04:17:20;102015.72;;;-2.77;100.00
75998;BME280;64685;48.762;44.822;2024-03-07T04:22:24;102019.91;;;-2.81;100.00
75998;BME280;64685;48.762;44.822;2024-03-07T04:27:29;102016.34;;;-2.75;100.00
75998;BME280;64685;48.762;44.822;2024-03-07T04:32:34;102026.28;;;-2.61;100.00
75998;BME280;64685;48.762;44.822;2024-03-07T04:37:37;102015.81;;;-2.98;100.00
75998;BME280;64685;48.762;44.822;2024-03-07T04:42:49;102034.19;;;-2.86;100.00
75998;BME280;64685;48.762;44.822;2024-03-07T04:47:53;102013.47;;;-3.01;100.00
75998;BME280;64685;48.762;44.822;2024-03-07T04:52:56;102029.88;;;-3.01;100.00
75998;BME280;64685;48.762;44.822;2024-03-07T04:58:00;102021.25;;;-3.11;100.00
75998;BME280;64685;48.762;44.822;2024-03-07T05:03:04;102019.25;;;-2.83;100.00
75998;BME280;64685;48.762;44.822;2024-03-07T05:08:08;102034.09;;;-2.45;100.00
75998;BME280;64685;48.762;44.822;2024-03-07T05:13:11;102044.81;;;-2.57;100.00
75998;BME280;64685;48.762;44.822;2024-03-07T05:18:15;102036.84;;;-2.39;100.00
75998;BME280;64685;48.762;44.822;2024-03-07T05:23:20;102040.16;;;-2.56;100.00
75998;BME280;64685;48.762;44.822;2024-03-07T05:28:24;102032.13;;;-2.71;100.00
75998;BME280;64685;48.762;44.822;2024-03-07T05:33:27;102027.78;;;-2.52;100.00
75998;BME280;64685;48.762;44.822;2024-03-07T05:38:31;102036.81;;;-2.45;100.00
75998;BME280;64685;48.762;44.822;2024-03-07T05:43:35;102031.13;;;-2.50;100.00
75998;BME280;64685;48.762;44.822;2024-03-07T05:48:38;102042.31;;;-2.45;100.00
75998;BME280;64685;48.762;44.822;2024-03-07T05:53:42;102035.00;;;-2.25;100.00
75998;BME280;64685;48.762;44.822;2024-03-07T05:58:46;102062.41;;;-2.06;100.00
75998;BME280;64685;48.762;44.822;2024-03-07T06:03:49;102060.53;;;-1.92;100.00
75998;BME280;64685;48.762;44.822;2024-03-07T06:08:53;102036.53;;;-1.84;100.00
75998;BME280;64685;48.762;44.822;2024-03-07T06:13:57;102038.41;;;-1.84;100.00
75998;BME280;64685;48.762;44.822;2024-03-07T06:19:03;102037.31;;;-2.22;100.00
75998;BME280;64685;48.762;44.822;2024-03-07T06:24:43;102032.00;;;-2.50;100.00
75998;BME280;64685;48.762;44.822;2024-03-07T06:30:52;102057.13;;;-2.07;100.00
75998;BME280;64685;48.762;44.822;2024-03-07T06:36:04;102062.16;;;-2.24;100.00
75998;BME280;64685;48.762;44.822;2024-03-07T06:41:08;102073.88;;;-2.49;100.00
75998;BME280;64685;48.762;44.822;2024-03-07T06:46:15;102059.25;;;-3.10;100.00
75998;BME280;64685;48.762;44.822;2024-03-07T06:51:19;102053.22;;;-3.05;100.00
75998;BME280;64685;48.762;44.822;2024-03-07T06:56:26;102064.00;;;-2.84;100.00
75998;BME280;64685;48.762;44.822;2024-03-07T07:01:30;102052.09;;;-2.70;100.00
75998;BME280;64685;48.762;44.822;2024-03-07T07:06:34;102033.84;;;-2.70;100.00
75998;BME280;64685;48.762;44.822;2024-03-07T07:11:39;102045.84;;;-2.51;100.00
75998;BME280;64685;48.762;44.822;2024-03-07T07:16:43;102060.91;;;-2.15;100.00
75998;BME280;64685;48.762;44.822;2024-03-07T07:21:49;102059.69;;;-1.86;100.00
75998;BME280;64685;48.762;44.822;2024-03-07T07:26:56;102050.84;;;-1.75;100.00
75998;BME280;64685;48.762;44.822;2024-03-07T07:32:00;102054.63;;;-1.70;100.00
75998;BME280;64685;48.762;44.822;2024-03-07T07:37:05;102050.22;;;-1.51;100.00
75998;BME280;64685;48.762;44.822;2024-03-07T07:42:09;102061.78;;;-1.36;100.00
75998;BME280;64685;48.762;44.822;2024-03-07T07:47:14;102042.59;;;-1.30;100.00
75998;BME280;64685;48.762;44.822;2024-03-07T07:52:18;102032.00;;;-1.07;100.00
75998;BME280;64685;48.762;44.822;2024-03-07T07:57:25;102048.38;;;-0.87;100.00
75998;BME280;64685;48.762;44.822;2024-03-07T08:02:30;102048.63;;;-1.02;100.00
75998;BME280;64685;48.762;44.822;2024-03-07T08:07:34;102046.56;;;-1.13;100.00
75998;BME280;64685;48.762;44.822;2024-03-07T08:12:38;102040.03;;;-1.12;100.00
75998;BME280;64685;48.762;44.822;2024-03-07T08:17:45;102053.81;;;-1.51;100.00
75998;BME280;64685;48.762;44.822;2024-03-07T08:22:51;102029.91;;;-1.05;100.00
75998;BME280;64685;48.762;44.822;2024-03-07T08:28:00;102051.78;;;-0.85;100.00
75998;BME280;64685;48.762;44.822;2024-03-07T08:33:04;102066.75;;;-0.88;100.00
75998;BME280;64685;48.762;44.822;2024-03-07T08:38:09;102040.00;;;-0.92;100.00
75998;BME280;64685;48.762;44.822;2024-03-07T08:43:15;102041.47;;;-0.96;100.00
75998;BME280;64685;48.762;44.822;2024-03-07T08:48:20;102039.78;;;-0.97;100.00
75998;BME280;64685;48.762;44.822;2024-03-07T08:53:24;102055.13;;;-0.83;100.00
75998;BME280;64685;48.762;44.822;2024-03-07T08:58:27;102054.72;;;-0.80;100.00
75998;BME280;64685;48.762;44.822;2024-03-07T09:03:31;102047.56;;;-0.88;100.00
75998;BME280;64685;48.762;44.822;2024-03-07T09:08:36;102037.72;;;-1.08;100.00
75998;BME280;64685;48.762;44.822;2024-03-07T09:13:40;102040.75;;;-0.79;100.00
75998;BME280;64685;48.762;44.822;2024-03-07T09:18:44;102047.13;;;-0.41;100.00
75998;BME280;64685;48.762;44.822;2024-03-07T09:23:50;102038.78;;;-0.59;100.00
75998;BME280;64685;48.762;44.822;2024-03-07T09:28:57;102044.66;;;-0.49;100.00
75998;BME280;64685;48.762;44.822;2024-03-07T09:34:01;102041.94;;;-1.12;100.00
75998;BME280;64685;48.762;44.822;2024-03-07T09:39:06;102057.97;;;-1.22;100.00
75998;BME280;64685;48.762;44.822;2024-03-07T09:44:15;102030.91;;;-0.93;100.00
75998;BME280;64685;48.762;44.822;2024-03-07T09:49:28;102020.59;;;-0.53;100.00
75998;BME280;64685;48.762;44.822;2024-03-07T09:54:32;102032.13;;;-0.82;100.00
75998;BME280;64685;48.762;44.822;2024-03-07T09:59:37;102029.38;;;-0.82;100.00
75998;BME280;64685;48.762;44.822;2024-03-07T10:04:44;102031.44;;;-0.71;100.00
75998;BME280;64685;48.762;44.822;2024-03-07T10:09:56;102037.06;;;-0.53;100.00
75998;BME280;64685;48.762;44.822;2024-03-07T10:15:04;102042.97;;;-0.50;100.00
75998;BME280;64685;48.762;44.822;2024-03-07T10:20:11;102037.13;;;-0.22;100.00
75998;BME280;64685;48.762;44.822;2024-03-07T10:25:18;102027.59;;;-0.20;100.00
75998;BME280;64685;48.762;44.822;2024-03-07T10:30:24;102056.28;;;0.15;100.00
75998;BME280;64685;48.762;44.822;2024-03-07T10:35:29;102043.19;;;-0.14;100.00
75998;BME280;64685;48.762;44.822;2024-03-07T10:40:34;102053.53;;;-0.53;100.00
75998;BME280;64685;48.762;44.822;2024-03-07T10:45:45;102030.56;;;-0.22;100.00
75998;BME280;64685;48.762;44.822;2024-03-07T10:51:05;102040.22;;;-0.13;100.00
75998;BME280;64685;48.762;44.822;2024-03-07T10:56:34;102056.97;;;-0.64;100.00
75998;BME280;64685;48.762;44.822;2024-03-07T11:07:11;102043.50;;;-0.79;100.00
75998;BME280;64685;48.762;44.822;2024-03-07T11:12:16;102030.56;;;-0.65;100.00
75998;BME280;64685;48.762;44.822;2024-03-07T11:17:21;102033.47;;;-0.47;100.00
75998;BME280;64685;48.762;44.822;2024-03-07T11:22:29;102032.78;;;-0.80;100.00
75998;BME280;64685;48.762;44.822;2024-03-07T11:27:38;102053.28;;;-0.39;100.00
75998;BME280;64685;48.762;44.822;2024-03-07T11:32:43;102037.91;;;-0.53;100.00
75998;BME280;64685;48.762;44.822;2024-03-07T11:37:48;102032.81;;;-0.49;100.00
75998;BME280;64685;48.762;44.822;2024-03-07T11:42:54;102030.09;;;-0.49;100.00
75998;BME280;64685;48.762;44.822;2024-03-07T11:48:00;102026.84;;;-0.33;100.00
75998;BME280;64685;48.762;44.822;2024-03-07T11:53:11;102049.25;;;-0.36;100.00
75998;BME280;64685;48.762;44.822;2024-03-07T11:58:16;102043.22;;;-0.21;100.00
75998;BME280;64685;48.762;44.822;2024-03-07T12:03:21;102026.31;;;-0.17;100.00
75998;BME280;64685;48.762;44.822;2024-03-07T12:08:26;102041.94;;;0.13;100.00
75998;BME280;64685;48.762;44.822;2024-03-07T12:13:31;102042.59;;;-0.22;100.00
75998;BME280;64685;48.762;44.822;2024-03-07T12:18:36;102032.31;;;-0.71;100.00
75998;BME280;64685;48.762;44.822;2024-03-07T12:31:25;102031.72;;;-0.35;100.00
75998;BME280;64685;48.762;44.822;2024-03-07T12:36:29;102041.53;;;-0.59;100.00
75998;BME280;64685;48.762;44.822;2024-03-07T12:41:38;102039.88;;;-0.66;100.00
75998;BME280;64685;48.762;44.822;2024-03-07T12:46:44;102037.53;;;-0.63;100.00
75998;BME280;64685;48.762;44.822;2024-03-07T12:51:49;102040.63;;;-0.97;100.00
75998;BME280;64685;48.762;44.822;2024-03-07T12:56:53;102047.56;;;-0.94;100.00
75998;BME280;64685;48.762;44.822;2024-03-07T13:01:57;102050.91;;;-0.79;100.00
75998;BME280;64685;48.762;44.822;2024-03-07T13:07:01;102044.44;;;-0.47;100.00
75998;BME280;64685;48.762;44.822;2024-03-07T13:12:05;102055.41;;;-0.47;100.00
75998;BME280;64685;48.762;44.822;2024-03-07T13:17:13;102051.03;;;-0.61;100.00
75998;BME280;64685;48.762;44.822;2024-03-07T13:22:20;102027.22;;;-0.61;100.00
75998;BME280;64685;48.762;44.822;2024-03-07T13:27:24;102015.75;;;-0.51;100.00
75998;BME280;64685;48.762;44.822;2024-03-07T13:32:31;102031.94;;;-0.37;100.00
75998;BME280;64685;48.762;44.822;2024-03-07T13:37:35;102049.75;;;-0.59;100.00
75998;BME280;64685;48.762;44.822;2024-03-07T13:42:39;102034.59;;;-0.68;100.00
75998;BME280;64685;48.762;44.822;2024-03-07T13:47:44;102041.13;;;-0.62;100.00
75998;BME280;64685;48.762;44.822;2024-03-07T13:52:49;102033.41;;;-0.85;100.00
75998;BME280;64685;48.762;44.822;2024-03-07T13:58:15;102038.66;;;-0.77;100.00
75998;BME280;64685;48.762;44.822;2024-03-07T14:08:54;102030.50;;;-0.96;100.00
75998;BME280;64685;48.762;44.822;2024-03-07T14:30:57;102023.81;;;-1.20;100.00
75998;BME280;64685;48.762;44.822;2024-03-07T14:36:13;102044.47;;;-1.11;100.00
75998;BME280;64685;48.762;44.822;2024-03-07T14:46:51;102042.00;;;-1.51;100.00
75998;BME280;64685;48.762;44.822;2024-03-07T14:51:56;102032.72;;;-1.63;100.00
75998;BME280;64685;48.762;44.822;2024-03-07T14:57:03;102030.59;;;-1.42;100.00
75998;BME280;64685;48.762;44.822;2024-03-07T15:02:10;102038.78;;;-1.22;100.00
75998;BME280;64685;48.762;44.822;2024-03-07T15:07:14;102063.00;;;-1.13;100.00
75998;BME280;64685;48.762;44.822;2024-03-07T15:12:17;102054.00;;;-1.33;100.00
75998;BME280;64685;48.762;44.822;2024-03-07T15:17:22;102042.19;;;-1.33;100.00
75998;BME280;64685;48.762;44.822;2024-03-07T15:22:27;102058.38;;;-1.19;100.00
75998;BME280;64685;48.762;44.822;2024-03-07T15:27:30;102047.81;;;-1.02;100.00
75998;BME280;64685;48.762;44.822;2024-03-07T15:32:34;102046.59;;;-1.26;100.00
75998;BME280;64685;48.762;44.822;2024-03-07T15:37:39;102052.06;;;-1.26;100.00
75998;BME280;64685;48.762;44.822;2024-03-07T15:42:46;102055.25;;;-1.29;100.00
75998;BME280;64685;48.762;44.822;2024-03-07T15:48:00;102065.53;;;-1.11;100.00
75998;BME280;64685;48.762;44.822;2024-03-07T15:53:11;102065.53;;;-1.11;100.00
75998;BME280;64685;48.762;44.822;2024-03-07T15:58:17;102079.06;;;-1.29;100.00
75998;BME280;64685;48.762;44.822;2024-03-07T16:03:20;102079.25;;;-1.31;100.00
75998;BME280;64685;48.762;44.822;2024-03-07T16:08:26;102067.91;;;-1.47;100.00
75998;BME280;64685;48.762;44.822;2024-03-07T16:13:30;102061.34;;;-1.27;100.00
75998;BME280;64685;48.762;44.822;2024-03-07T16:18:34;102080.06;;;-0.98;100.00
75998;BME280;64685;48.762;44.822;2024-03-07T16:23:38;102071.19;;;-0.93;100.00
75998;BME280;64685;48.762;44.822;2024-03-07T16:28:43;102058.53;;;-0.94;100.00
75998;BME280;64685;48.762;44.822;2024-03-07T16:33:47;102060.25;;;-1.06;100.00
75998;BME280;64685;48.762;44.822;2024-03-07T16:38:51;102073.97;;;-1.06;100.00
75998;BME280;64685;48.762;44.822;2024-03-07T16:43:54;102067.25;;;-1.17;100.00
75998;BME280;64685;48.762;44.822;2024-03-07T17:04:38;102093.41;;;-1.40;100.00
75998;BME280;64685;48.762;44.822;2024-03-07T17:09:43;102077.19;;;-1.48;100.00
75998;BME280;64685;48.762;44.822;2024-03-07T17:14:47;102076.97;;;-1.34;100.00
75998;BME280;64685;48.762;44.822;2024-03-07T17:19:51;102084.75;;;-1.50;100.00
75998;BME280;64685;48.762;44.822;2024-03-07T17:24:54;102066.63;;;-1.71;100.00
75998;BME280;64685;48.762;44.822;2024-03-07T17:29:59;102095.72;;;-1.57;100.00
75998;BME280;64685;48.762;44.822;2024-03-07T17:35:05;102076.94;;;-1.47;100.00
75998;BME280;64685;48.762;44.822;2024-03-07T17:40:14;102071.50;;;-1.60;100.00
75998;BME280;64685;48.762;44.822;2024-03-07T17:45:27;102066.59;;;-1.97;100.00
75998;BME280;64685;48.762;44.822;2024-03-07T17:50:31;102087.69;;;-1.84;100.00
75998;BME280;64685;48.762;44.822;2024-03-07T17:55:35;102076.53;;;-1.96;100.00
75998;BME280;64685;48.762;44.822;2024-03-07T18:00:39;102088.28;;;-1.95;100.00
75998;BME280;64685;48.762;44.822;2024-03-07T18:05:47;102083.28;;;-1.66;100.00
75998;BME280;64685;48.762;44.822;2024-03-07T18:10:55;102072.53;;;-1.35;100.00
75998;BME280;64685;48.762;44.822;2024-03-07T18:15:59;102063.28;;;-1.60;100.00
75998;BME280;64685;48.762;44.822;2024-03-07T18:21:03;102076.13;;;-1.54;100.00
75998;BME280;64685;48.762;44.822;2024-03-07T18:26:08;102084.97;;;-1.52;100.00
75998;BME280;64685;48.762;44.822;2024-03-07T18:31:15;102066.00;;;-1.73;100.00
75998;BME280;64685;48.762;44.822;2024-03-07T18:36:21;102076.97;;;-1.53;100.00
75998;BME280;64685;48.762;44.822;2024-03-07T18:41:25;102073.59;;;-1.81;100.00
75998;BME280;64685;48.762;44.822;2024-03-07T18:46:35;102066.63;;;-1.90;100.00
75998;BME280;64685;48.762;44.822;2024-03-07T18:51:39;102070.44;;;-1.72;100.00
75998;BME280;64685;48.762;44.822;2024-03-07T18:56:44;102064.75;;;-1.70;100.00
75998;BME280;64685;48.762;44.822;2024-03-07T19:01:48;102054.84;;;-1.91;100.00
75998;BME280;64685;48.762;44.822;2024-03-07T19:06:54;102075.88;;;-1.91;100.00
75998;BME280;64685;48.762;44.822;2024-03-07T19:12:01;102059.88;;;-2.01;100.00
75998;BME280;64685;48.762;44.822;2024-03-07T19:17:05;102040.50;;;-2.19;100.00
75998;BME280;64685;48.762;44.822;2024-03-07T19:22:14;102035.22;;;-2.07;100.00
75998;BME280;64685;48.762;44.822;2024-03-07T19:27:21;102049.38;;;-1.65;100.00
75998;BME280;64685;48.762;44.822;2024-03-07T19:32:26;102042.44;;;-1.93;100.00
75998;BME280;64685;48.762;44.822;2024-03-07T19:37:30;102038.63;;;-1.66;100.00
75998;BME280;64685;48.762;44.822;2024-03-07T19:42:35;102026.63;;;-1.78;100.00
75998;BME280;64685;48.762;44.822;2024-03-07T19:47:43;102019.88;;;-1.76;100.00
75998;BME280;64685;48.762;44.822;2024-03-07T19:52:47;102022.63;;;-1.69;100.00
75998;BME280;64685;48.762;44.822;2024-03-07T19:57:54;102030.41;;;-1.60;100.00
75998;BME280;64685;48.762;44.822;2024-03-07T20:03:01;102022.22;;;-1.73;100.00
75998;BME280;64685;48.762;44.822;2024-03-07T20:08:12;102017.56;;;-1.85;100.00
75998;BME280;64685;48.762;44.822;2024-03-07T20:13:18;102022.63;;;-1.76;100.00
75998;BME280;64685;48.762;44.822;2024-03-07T20:18:25;102016.09;;;-1.81;100.00
75998;BME280;64685;48.762;44.822;2024-03-07T20:23:32;102029.75;;;-1.94;100.00
75998;BME280;64685;48.762;44.822;2024-03-07T20:28:36;102017.13;;;-2.08;100.00
75998;BME280;64685;48.762;44.822;2024-03-07T20:33:43;102019.63;;;-2.20;100.00
75998;BME280;64685;48.762;44.822;2024-03-07T20:38:47;102006.59;;;-2.11;100.00
75998;BME280;64685;48.762;44.822;2024-03-07T20:43:53;101999.47;;;-2.06;100.00
75998;BME280;64685;48.762;44.822;2024-03-07T20:48:59;102000.50;;;-2.13;100.00
75998;BME280;64685;48.762;44.822;2024-03-07T20:54:10;102004.28;;;-2.14;100.00
75998;BME280;64685;48.762;44.822;2024-03-07T20:59:18;102022.59;;;-2.15;100.00
75998;BME280;64685;48.762;44.822;2024-03-07T21:04:24;102003.66;;;-2.16;100.00
75998;BME280;64685;48.762;44.822;2024-03-07T21:09:28;102004.06;;;-2.19;100.00
75998;BME280;64685;48.762;44.822;2024-03-07T21:14:35;101992.28;;;-2.20;100.00
75998;BME280;64685;48.762;44.822;2024-03-07T21:19:43;101984.75;;;-1.98;100.00
75998;BME280;64685;48.762;44.822;2024-03-07T21:24:52;102007.03;;;-1.82;100.00
75998;BME280;64685;48.762;44.822;2024-03-07T21:30:02;101994.63;;;-1.84;100.00
75998;BME280;64685;48.762;44.822;2024-03-07T21:35:11;102000.09;;;-1.97;100.00
75998;BME280;64685;48.762;44.822;2024-03-07T21:40:17;101985.13;;;-2.01;100.00
75998;BME280;64685;48.762;44.822;2024-03-07T21:45:30;101988.06;;;-2.03;100.00
75998;BME280;64685;48.762;44.822;2024-03-07T21:50:45;101975.00;;;-2.40;100.00
75998;BME280;64685;48.762;44.822;2024-03-07T21:55:54;101979.03;;;-2.23;100.00
75998;BME280;64685;48.762;44.822;2024-03-07T22:01:03;101960.72;;;-2.22;100.00
75998;BME280;64685;48.762;44.822;2024-03-07T22:06:12;101981.38;;;-2.07;100.00
75998;BME280;64685;48.762;44.822;2024-03-07T22:11:22;101960.94;;;-2.11;100.00
75998;BME280;64685;48.762;44.822;2024-03-07T22:16:30;101960.91;;;-2.17;100.00
75998;BME280;64685;48.762;44.822;2024-03-07T22:21:38;101970.84;;;-2.16;100.00
75998;BME280;64685;48.762;44.822;2024-03-07T22:27:05;101956.72;;;-2.26;100.00
75998;BME280;64685;48.762;44.822;2024-03-07T22:32:13;101980.28;;;-2.12;100.00
75998;BME280;64685;48.762;44.822;2024-03-07T22:37:26;101960.09;;;-2.37;100.00
75998;BME280;64685;48.762;44.822;2024-03-07T22:42:35;101977.50;;;-2.51;100.00
75998;BME280;64685;48.762;44.822;2024-03-07T22:47:44;101960.81;;;-2.82;100.00
75998;BME280;64685;48.762;44.822;2024-03-07T22:53:03;101970.44;;;-2.99;100.00
75998;BME280;64685;48.762;44.822;2024-03-07T22:58:10;101975.00;;;-3.13;100.00
75998;BME280;64685;48.762;44.822;2024-03-07T23:03:24;101961.28;;;-3.26;100.00
75998;BME280;64685;48.762;44.822;2024-03-07T23:08:33;101963.53;;;-3.36;100.00
75998;BME280;64685;48.762;44.822;2024-03-07T23:13:40;101941.72;;;-3.63;100.00
75998;BME280;64685;48.762;44.822;2024-03-07T23:18:49;101945.81;;;-3.87;100.00
75998;BME280;64685;48.762;44.822;2024-03-07T23:23:53;101950.56;;;-3.95;100.00
75998;BME280;64685;48.762;44.822;2024-03-07T23:29:02;101938.75;;;-4.02;100.00
75998;BME280;64685;48.762;44.822;2024-03-07T23:34:21;101944.28;;;-4.17;100.00
75998;BME280;64685;48.762;44.822;2024-03-07T23:39:28;101946.72;;;-4.28;100.00
75998;BME280;64685;48.762;44.822;2024-03-07T23:44:36;101956.25;;;-4.18;100.00
75998;BME280;64685;48.762;44.822;2024-03-07T23:50:06;101974.03;;;-4.22;100.00
75998;BME280;64685;48.762;44.822;2024-03-07T23:55:30;101948.78;;;-4.30;100.00
